sensor_id;sensor_type;location;lat;lon;timestamp;temperature;humidity
46137;DHT22;31871;49.418;8.752;2022-10-01T00:00:18;10.00;99.90
46137;DHT22;31871;49.418;8.752;2022-10-01T00:02:45;10.00;99.90
46137;DHT22;31871;49.418;8.752;2022-10-01T00:05:11;9.90;99.90
46137;DHT22;31871;49.418;8.752;2022-10-01T00:07:38;9.90;99.90
46137;DHT22;31871;49.418;8.752;2022-10-01T00:10:05;9.90;99.90
46137;DHT22;31871;49.418;8.752;2022-10-01T00:12:34;9.80;99.90
46137;DHT22;31871;49.418;8.752;2022-10-01T00:14:59;9.90;99.90
46137;DHT22;31871;49.418;8.752;2022-10-01T00:17:25;9.90;99.90
46137;DHT22;31871;49.418;8.752;2022-10-01T00:19:50;9.80;99.90
46137;DHT22;31871;49.418;8.752;2022-10-01T00:22:16;9.80;99.90
46137;DHT22;31871;49.418;8.752;2022-10-01T00:24:44;9.80;99.90
46137;DHT22;31871;49.418;8.752;2022-10-01T00:27:12;9.80;99.90
46137;DHT22;31871;49.418;8.752;2022-10-01T00:29:39;9.80;99.90
46137;DHT22;31871;49.418;8.752;2022-10-01T00:32:07;9.70;99.90
46137;DHT22;31871;49.418;8.752;2022-10-01T00:34:34;9.70;99.90
46137;DHT22;31871;49.418;8.752;2022-10-01T00:36:59;9.80;99.90
46137;DHT22;31871;49.418;8.752;2022-10-01T00:39:25;9.80;99.90
46137;DHT22;31871;49.418;8.752;2022-10-01T00:41:50;9.90;99.90
46137;DHT22;31871;49.418;8.752;2022-10-01T00:44:35;9.90;99.90
46137;DHT22;31871;49.418;8.752;2022-10-01T00:50:16;10.00;99.90
46137;DHT22;31871;49.418;8.752;2022-10-01T00:52:47;10.00;99.90
46137;DHT22;31871;49.418;8.752;2022-10-01T00:55:35;10.10;99.90
46137;DHT22;31871;49.418;8.752;2022-10-01T00:58:06;10.20;99.90
46137;DHT22;31871;49.418;8.752;2022-10-01T01:00:35;10.20;99.90
46137;DHT22;31871;49.418;8.752;2022-10-01T01:03:01;10.30;99.90
46137;DHT22;31871;49.418;8.752;2022-10-01T01:05:28;10.30;99.90
46137;DHT22;31871;49.418;8.752;2022-10-01T01:07:53;10.40;99.90
46137;DHT22;31871;49.418;8.752;2022-10-01T01:10:28;10.40;99.90
46137;DHT22;31871;49.418;8.752;2022-10-01T01:15:46;10.50;99.90
46137;DHT22;31871;49.418;8.752;2022-10-01T01:21:27;10.30;99.90
46137;DHT22;31871;49.418;8.752;2022-10-01T01:24:18;10.40;99.90
46137;DHT22;31871;49.418;8.752;2022-10-01T01:32:31;10.50;99.90
46137;DHT22;31871;49.418;8.752;2022-10-01T01:35:01;10.60;99.90
46137;DHT22;31871;49.418;8.752;2022-10-01T01:37:31;10.60;99.90
46137;DHT22;31871;49.418;8.752;2022-10-01T01:39:58;10.50;99.90
46137;DHT22;31871;49.418;8.752;2022-10-01T01:42:33;10.50;99.90
46137;DHT22;31871;49.418;8.752;2022-10-01T01:45:03;10.60;99.90
46137;DHT22;31871;49.418;8.752;2022-10-01T01:47:33;10.50;99.90
46137;DHT22;31871;49.418;8.752;2022-10-01T01:50:01;10.40;99.90
46137;DHT22;31871;49.418;8.752;2022-10-01T01:52:28;10.40;99.90
46137;DHT22;31871;49.418;8.752;2022-10-01T01:54:54;10.50;99.90
46137;DHT22;31871;49.418;8.752;2022-10-01T01:57:20;10.40;99.90
46137;DHT22;31871;49.418;8.752;2022-10-01T01:59:46;10.30;99.90
46137;DHT22;31871;49.418;8.752;2022-10-01T02:02:25;10.30;99.90
46137;DHT22;31871;49.418;8.752;2022-10-01T02:04:55;10.30;99.90
46137;DHT22;31871;49.418;8.752;2022-10-01T02:07:32;10.30;99.90
46137;DHT22;31871;49.418;8.752;2022-10-01T02:15:29;10.30;99.90
46137;DHT22;31871;49.418;8.752;2022-10-01T02:18:19;10.10;99.90
46137;DHT22;31871;49.418;8.752;2022-10-01T02:21:40;10.00;99.90
46137;DHT22;31871;49.418;8.752;2022-10-01T02:26:33;9.80;99.90
46137;DHT22;31871;49.418;8.752;2022-10-01T02:29:04;9.80;99.90
46137;DHT22;31871;49.418;8.752;2022-10-01T02:31:31;9.70;99.90
46137;DHT22;31871;49.418;8.752;2022-10-01T02:33:59;9.80;99.90
46137;DHT22;31871;49.418;8.752;2022-10-01T02:36:26;9.70;99.90
46137;DHT22;31871;49.418;8.752;2022-10-01T02:38:55;9.70;99.90
46137;DHT22;31871;49.418;8.752;2022-10-01T02:41:25;9.70;99.90
46137;DHT22;31871;49.418;8.752;2022-10-01T02:44:09;9.70;99.90
46137;DHT22;31871;49.418;8.752;2022-10-01T02:46:48;9.60;99.90
46137;DHT22;31871;49.418;8.752;2022-10-01T02:49:14;9.60;99.90
46137;DHT22;31871;49.418;8.752;2022-10-01T02:51:47;9.70;99.90
46137;DHT22;31871;49.418;8.752;2022-10-01T02:54:23;9.60;99.90
46137;DHT22;31871;49.418;8.752;2022-10-01T02:56:51;9.60;99.90
46137;DHT22;31871;49.418;8.752;2022-10-01T02:59:35;9.60;99.90
46137;DHT22;31871;49.418;8.752;2022-10-01T03:02:03;9.60;99.90
46137;DHT22;31871;49.418;8.752;2022-10-01T03:04:29;9.60;99.90
46137;DHT22;31871;49.418;8.752;2022-10-01T03:06:55;9.60;99.90
46137;DHT22;31871;49.418;8.752;2022-10-01T03:09:23;9.70;99.90
46137;DHT22;31871;49.418;8.752;2022-10-01T03:11:48;9.70;99.90
46137;DHT22;31871;49.418;8.752;2022-10-01T03:14:14;9.70;99.90
46137;DHT22;31871;49.418;8.752;2022-10-01T03:16:43;9.80;99.90
46137;DHT22;31871;49.418;8.752;2022-10-01T03:19:08;9.80;99.90
46137;DHT22;31871;49.418;8.752;2022-10-01T03:21:34;9.80;99.90
46137;DHT22;31871;49.418;8.752;2022-10-01T03:24:00;9.90;99.90
46137;DHT22;31871;49.418;8.752;2022-10-01T03:26:25;9.90;99.90
46137;DHT22;31871;49.418;8.752;2022-10-01T03:28:51;10.00;99.90
46137;DHT22;31871;49.418;8.752;2022-10-01T03:31:16;10.00;99.90
46137;DHT22;31871;49.418;8.752;2022-10-01T03:33:42;9.90;99.90
46137;DHT22;31871;49.418;8.752;2022-10-01T03:36:07;9.90;99.90
46137;DHT22;31871;49.418;8.752;2022-10-01T03:38:33;10.00;99.90
46137;DHT22;31871;49.418;8.752;2022-10-01T03:40:58;10.00;99.90
46137;DHT22;31871;49.418;8.752;2022-10-01T03:43:25;10.00;99.90
46137;DHT22;31871;49.418;8.752;2022-10-01T03:45:53;10.00;99.90
46137;DHT22;31871;49.418;8.752;2022-10-01T03:48:22;10.20;99.90
46137;DHT22;31871;49.418;8.752;2022-10-01T03:50:52;10.30;99.90
46137;DHT22;31871;49.418;8.752;2022-10-01T03:53:18;10.30;99.90
46137;DHT22;31871;49.418;8.752;2022-10-01T03:55:43;10.20;99.90
46137;DHT22;31871;49.418;8.752;2022-10-01T03:58:09;10.20;99.90
46137;DHT22;31871;49.418;8.752;2022-10-01T04:00:34;10.20;99.90
46137;DHT22;31871;49.418;8.752;2022-10-01T04:03:00;10.20;99.90
46137;DHT22;31871;49.418;8.752;2022-10-01T04:05:25;10.30;99.90
46137;DHT22;31871;49.418;8.752;2022-10-01T04:07:51;10.30;99.90
46137;DHT22;31871;49.418;8.752;2022-10-01T04:10:16;10.30;99.90
46137;DHT22;31871;49.418;8.752;2022-10-01T04:12:42;10.30;99.90
46137;DHT22;31871;49.418;8.752;2022-10-01T04:15:08;10.30;99.90
46137;DHT22;31871;49.418;8.752;2022-10-01T04:17:35;10.30;99.90
46137;DHT22;31871;49.418;8.752;2022-10-01T04:20:01;10.20;99.90
46137;DHT22;31871;49.418;8.752;2022-10-01T04:22:27;10.30;99.90
46137;DHT22;31871;49.418;8.752;2022-10-01T04:24:52;10.30;99.90
46137;DHT22;31871;49.418;8.752;2022-10-01T04:27:18;10.30;99.90
46137;DHT22;31871;49.418;8.752;2022-10-01T04:29:44;10.30;99.90
46137;DHT22;31871;49.418;8.752;2022-10-01T04:32:09;10.20;99.90
46137;DHT22;31871;49.418;8.752;2022-10-01T04:34:35;10.20;99.90
46137;DHT22;31871;49.418;8.752;2022-10-01T04:37:20;10.20;99.90
46137;DHT22;31871;49.418;8.752;2022-10-01T04:39:45;10.20;99.90
46137;DHT22;31871;49.418;8.752;2022-10-01T04:42:11;10.20;99.90
46137;DHT22;31871;49.418;8.752;2022-10-01T04:44:39;10.30;99.90
46137;DHT22;31871;49.418;8.752;2022-10-01T04:47:06;10.30;99.90
46137;DHT22;31871;49.418;8.752;2022-10-01T04:49:32;10.30;99.90
46137;DHT22;31871;49.418;8.752;2022-10-01T04:52:00;10.40;99.90
46137;DHT22;31871;49.418;8.752;2022-10-01T04:54:29;10.40;99.90
46137;DHT22;31871;49.418;8.752;2022-10-01T04:56:54;10.50;99.90
46137;DHT22;31871;49.418;8.752;2022-10-01T04:59:22;10.50;99.90
46137;DHT22;31871;49.418;8.752;2022-10-01T05:01:47;10.50;99.90
46137;DHT22;31871;49.418;8.752;2022-10-01T05:04:13;10.50;99.90
46137;DHT22;31871;49.418;8.752;2022-10-01T05:06:38;10.40;99.90
46137;DHT22;31871;49.418;8.752;2022-10-01T05:09:05;10.40;99.90
46137;DHT22;31871;49.418;8.752;2022-10-01T05:11:31;10.30;99.90
46137;DHT22;31871;49.418;8.752;2022-10-01T05:13:56;10.30;99.90
46137;DHT22;31871;49.418;8.752;2022-10-01T05:16:22;10.30;99.90
46137;DHT22;31871;49.418;8.752;2022-10-01T05:18:47;10.30;99.90
46137;DHT22;31871;49.418;8.752;2022-10-01T05:21:13;10.20;99.90
46137;DHT22;31871;49.418;8.752;2022-10-01T05:23:40;10.20;99.90
46137;DHT22;31871;49.418;8.752;2022-10-01T05:26:06;10.30;99.90
46137;DHT22;31871;49.418;8.752;2022-10-01T05:28:32;10.30;99.90
46137;DHT22;31871;49.418;8.752;2022-10-01T05:30:59;10.20;99.90
46137;DHT22;31871;49.418;8.752;2022-10-01T05:33:28;10.30;99.90
46137;DHT22;31871;49.418;8.752;2022-10-01T05:35:56;10.10;99.90
46137;DHT22;31871;49.418;8.752;2022-10-01T05:38:21;10.00;99.90
46137;DHT22;31871;49.418;8.752;2022-10-01T05:40:47;10.00;99.90
46137;DHT22;31871;49.418;8.752;2022-10-01T05:43:13;10.00;99.90
46137;DHT22;31871;49.418;8.752;2022-10-01T05:45:40;9.90;99.90
46137;DHT22;31871;49.418;8.752;2022-10-01T05:48:09;9.90;99.90
46137;DHT22;31871;49.418;8.752;2022-10-01T05:50:36;9.90;99.90
46137;DHT22;31871;49.418;8.752;2022-10-01T05:53:05;10.00;99.90
46137;DHT22;31871;49.418;8.752;2022-10-01T05:55:32;10.00;99.90
46137;DHT22;31871;49.418;8.752;2022-10-01T05:58:04;10.10;99.90
46137;DHT22;31871;49.418;8.752;2022-10-01T06:00:31;10.00;99.90
46137;DHT22;31871;49.418;8.752;2022-10-01T06:02:58;10.00;99.90
46137;DHT22;31871;49.418;8.752;2022-10-01T06:05:25;10.00;99.90
46137;DHT22;31871;49.418;8.752;2022-10-01T06:07:51;10.00;99.90
46137;DHT22;31871;49.418;8.752;2022-10-01T06:10:19;10.00;99.90
46137;DHT22;31871;49.418;8.752;2022-10-01T06:12:45;10.00;99.90
46137;DHT22;31871;49.418;8.752;2022-10-01T06:15:11;10.00;99.90
46137;DHT22;31871;49.418;8.752;2022-10-01T06:17:37;10.00;99.90
46137;DHT22;31871;49.418;8.752;2022-10-01T06:20:16;9.90;99.90
46137;DHT22;31871;49.418;8.752;2022-10-01T06:22:43;9.90;99.90
46137;DHT22;31871;49.418;8.752;2022-10-01T06:25:12;9.90;99.90
46137;DHT22;31871;49.418;8.752;2022-10-01T06:27:40;9.90;99.90
46137;DHT22;31871;49.418;8.752;2022-10-01T06:30:06;9.90;99.90
46137;DHT22;31871;49.418;8.752;2022-10-01T06:32:32;9.90;99.90
46137;DHT22;31871;49.418;8.752;2022-10-01T06:34:58;10.00;99.90
46137;DHT22;31871;49.418;8.752;2022-10-01T06:37:24;10.00;99.90
46137;DHT22;31871;49.418;8.752;2022-10-01T06:39:49;10.00;99.90
46137;DHT22;31871;49.418;8.752;2022-10-01T06:42:15;10.00;99.90
46137;DHT22;31871;49.418;8.752;2022-10-01T06:44:40;10.00;99.90
46137;DHT22;31871;49.418;8.752;2022-10-01T06:47:07;10.10;99.90
46137;DHT22;31871;49.418;8.752;2022-10-01T06:49:33;10.10;99.90
46137;DHT22;31871;49.418;8.752;2022-10-01T06:51:59;10.10;99.90
46137;DHT22;31871;49.418;8.752;2022-10-01T06:54:43;10.10;99.90
46137;DHT22;31871;49.418;8.752;2022-10-01T06:57:09;10.10;99.90
46137;DHT22;31871;49.418;8.752;2022-10-01T06:59:35;10.10;99.90
46137;DHT22;31871;49.418;8.752;2022-10-01T07:02:04;10.10;99.90
46137;DHT22;31871;49.418;8.752;2022-10-01T07:04:30;10.10;99.90
46137;DHT22;31871;49.418;8.752;2022-10-01T07:06:56;10.10;99.90
46137;DHT22;31871;49.418;8.752;2022-10-01T07:09:25;10.10;99.90
46137;DHT22;31871;49.418;8.752;2022-10-01T07:11:51;10.20;99.90
46137;DHT22;31871;49.418;8.752;2022-10-01T07:14:18;10.10;99.90
46137;DHT22;31871;49.418;8.752;2022-10-01T07:16:46;10.10;99.90
46137;DHT22;31871;49.418;8.752;2022-10-01T07:19:11;10.10;99.90
46137;DHT22;31871;49.418;8.752;2022-10-01T07:21:37;10.10;99.90
46137;DHT22;31871;49.418;8.752;2022-10-01T07:24:03;10.10;99.90
46137;DHT22;31871;49.418;8.752;2022-10-01T07:26:28;10.10;99.90
46137;DHT22;31871;49.418;8.752;2022-10-01T07:28:54;10.20;99.90
46137;DHT22;31871;49.418;8.752;2022-10-01T07:31:20;10.20;99.90
46137;DHT22;31871;49.418;8.752;2022-10-01T07:33:46;10.20;99.90
46137;DHT22;31871;49.418;8.752;2022-10-01T07:36:12;10.20;99.90
46137;DHT22;31871;49.418;8.752;2022-10-01T07:38:38;10.20;99.90
46137;DHT22;31871;49.418;8.752;2022-10-01T07:41:04;10.30;99.90
46137;DHT22;31871;49.418;8.752;2022-10-01T07:43:31;10.30;99.90
46137;DHT22;31871;49.418;8.752;2022-10-01T07:45:57;10.30;99.90
46137;DHT22;31871;49.418;8.752;2022-10-01T07:48:24;10.30;99.90
46137;DHT22;31871;49.418;8.752;2022-10-01T07:50:50;10.40;99.90
46137;DHT22;31871;49.418;8.752;2022-10-01T07:53:16;10.40;99.90
46137;DHT22;31871;49.418;8.752;2022-10-01T07:55:42;10.50;99.90
46137;DHT22;31871;49.418;8.752;2022-10-01T07:58:09;10.50;99.90
46137;DHT22;31871;49.418;8.752;2022-10-01T08:00:36;10.60;99.90
46137;DHT22;31871;49.418;8.752;2022-10-01T08:03:02;10.50;99.90
46137;DHT22;31871;49.418;8.752;2022-10-01T08:05:31;10.50;99.90
46137;DHT22;31871;49.418;8.752;2022-10-01T08:08:02;10.50;99.90
46137;DHT22;31871;49.418;8.752;2022-10-01T08:10:28;10.70;99.90
46137;DHT22;31871;49.418;8.752;2022-10-01T08:13:02;10.80;99.90
46137;DHT22;31871;49.418;8.752;2022-10-01T08:15:33;10.70;99.90
46137;DHT22;31871;49.418;8.752;2022-10-01T08:18:03;10.70;99.90
46137;DHT22;31871;49.418;8.752;2022-10-01T08:20:29;10.70;99.90
46137;DHT22;31871;49.418;8.752;2022-10-01T08:23:01;10.80;99.90
46137;DHT22;31871;49.418;8.752;2022-10-01T08:25:27;10.80;99.90
46137;DHT22;31871;49.418;8.752;2022-10-01T08:27:52;10.80;99.90
46137;DHT22;31871;49.418;8.752;2022-10-01T08:30:18;10.80;99.90
46137;DHT22;31871;49.418;8.752;2022-10-01T08:32:43;11.00;99.90
46137;DHT22;31871;49.418;8.752;2022-10-01T08:35:09;11.00;99.90
46137;DHT22;31871;49.418;8.752;2022-10-01T08:37:35;11.00;99.90
46137;DHT22;31871;49.418;8.752;2022-10-01T08:40:00;11.10;99.90
46137;DHT22;31871;49.418;8.752;2022-10-01T08:42:40;11.20;99.90
46137;DHT22;31871;49.418;8.752;2022-10-01T08:45:15;11.10;99.90
46137;DHT22;31871;49.418;8.752;2022-10-01T08:47:45;11.10;99.90
46137;DHT22;31871;49.418;8.752;2022-10-01T08:53:00;11.20;99.90
46137;DHT22;31871;49.418;8.752;2022-10-01T08:55:27;11.20;99.90
46137;DHT22;31871;49.418;8.752;2022-10-01T08:58:05;11.10;99.90
46137;DHT22;31871;49.418;8.752;2022-10-01T09:00:34;11.10;99.90
46137;DHT22;31871;49.418;8.752;2022-10-01T09:03:05;11.00;99.90
46137;DHT22;31871;49.418;8.752;2022-10-01T09:05:46;11.10;99.90
46137;DHT22;31871;49.418;8.752;2022-10-01T09:19:28;11.40;99.90
46137;DHT22;31871;49.418;8.752;2022-10-01T09:21:58;11.40;99.90
46137;DHT22;31871;49.418;8.752;2022-10-01T09:24:38;11.40;99.90
46137;DHT22;31871;49.418;8.752;2022-10-01T09:27:17;11.50;99.90
46137;DHT22;31871;49.418;8.752;2022-10-01T09:29:54;11.50;99.90
46137;DHT22;31871;49.418;8.752;2022-10-01T09:32:27;11.40;99.90
46137;DHT22;31871;49.418;8.752;2022-10-01T09:34:55;11.40;99.90
46137;DHT22;31871;49.418;8.752;2022-10-01T09:37:39;11.50;99.90
46137;DHT22;31871;49.418;8.752;2022-10-01T09:43:04;11.50;99.90
46137;DHT22;31871;49.418;8.752;2022-10-01T09:45:33;11.60;99.90
46137;DHT22;31871;49.418;8.752;2022-10-01T09:48:03;11.70;99.90
46137;DHT22;31871;49.418;8.752;2022-10-01T09:50:44;11.60;99.90
46137;DHT22;31871;49.418;8.752;2022-10-01T09:56:13;11.60;99.90
46137;DHT22;31871;49.418;8.752;2022-10-01T09:58:44;11.60;99.90
46137;DHT22;31871;49.418;8.752;2022-10-01T10:01:44;11.70;99.90
46137;DHT22;31871;49.418;8.752;2022-10-01T10:04:20;11.80;99.90
46137;DHT22;31871;49.418;8.752;2022-10-01T10:06:48;11.80;99.90
46137;DHT22;31871;49.418;8.752;2022-10-01T10:09:22;11.70;99.90
46137;DHT22;31871;49.418;8.752;2022-10-01T10:11:51;11.70;99.90
46137;DHT22;31871;49.418;8.752;2022-10-01T10:14:28;11.80;99.90
46137;DHT22;31871;49.418;8.752;2022-10-01T10:16:54;11.80;99.90
46137;DHT22;31871;49.418;8.752;2022-10-01T10:19:25;11.70;99.90
46137;DHT22;31871;49.418;8.752;2022-10-01T10:21:56;11.60;99.90
46137;DHT22;31871;49.418;8.752;2022-10-01T10:24:34;11.70;99.90
46137;DHT22;31871;49.418;8.752;2022-10-01T10:27:02;11.70;99.90
46137;DHT22;31871;49.418;8.752;2022-10-01T10:29:33;11.70;99.90
46137;DHT22;31871;49.418;8.752;2022-10-01T10:32:03;11.80;99.90
46137;DHT22;31871;49.418;8.752;2022-10-01T10:36:58;11.80;99.90
46137;DHT22;31871;49.418;8.752;2022-10-01T10:39:27;11.80;99.90
46137;DHT22;31871;49.418;8.752;2022-10-01T10:41:55;11.80;99.90
46137;DHT22;31871;49.418;8.752;2022-10-01T10:44:24;11.80;99.90
46137;DHT22;31871;49.418;8.752;2022-10-01T10:46:52;11.70;99.90
46137;DHT22;31871;49.418;8.752;2022-10-01T10:49:25;11.70;99.90
46137;DHT22;31871;49.418;8.752;2022-10-01T10:51:53;11.70;99.90
46137;DHT22;31871;49.418;8.752;2022-10-01T10:54:34;11.90;99.90
46137;DHT22;31871;49.418;8.752;2022-10-01T10:57:22;11.90;99.90
46137;DHT22;31871;49.418;8.752;2022-10-01T11:00:16;11.90;99.90
46137;DHT22;31871;49.418;8.752;2022-10-01T11:02:59;11.80;99.90
46137;DHT22;31871;49.418;8.752;2022-10-01T11:05:27;11.80;99.90
46137;DHT22;31871;49.418;8.752;2022-10-01T11:07:58;11.90;99.90
46137;DHT22;31871;49.418;8.752;2022-10-01T11:10:34;12.00;99.90
46137;DHT22;31871;49.418;8.752;2022-10-01T11:27:32;12.20;99.90
46137;DHT22;31871;49.418;8.752;2022-10-01T11:30:12;12.20;99.90
46137;DHT22;31871;49.418;8.752;2022-10-01T11:35:55;12.20;99.90
46137;DHT22;31871;49.418;8.752;2022-10-01T11:38:48;12.30;99.90
46137;DHT22;31871;49.418;8.752;2022-10-01T11:44:17;12.20;99.90
46137;DHT22;31871;49.418;8.752;2022-10-01T11:54:31;12.40;99.90
46137;DHT22;31871;49.418;8.752;2022-10-01T11:56:59;12.40;99.90
46137;DHT22;31871;49.418;8.752;2022-10-01T11:59:55;12.40;99.90
46137;DHT22;31871;49.418;8.752;2022-10-01T12:02:32;12.50;99.90
46137;DHT22;31871;49.418;8.752;2022-10-01T12:07:40;12.50;99.90
46137;DHT22;31871;49.418;8.752;2022-10-01T12:13:21;12.40;99.90
46137;DHT22;31871;49.418;8.752;2022-10-01T12:16:12;12.40;99.90
46137;DHT22;31871;49.418;8.752;2022-10-01T12:18:59;12.40;99.90
46137;DHT22;31871;49.418;8.752;2022-10-01T12:21:32;12.40;99.90
46137;DHT22;31871;49.418;8.752;2022-10-01T12:24:21;12.40;99.90
46137;DHT22;31871;49.418;8.752;2022-10-01T12:26:59;12.50;99.90
46137;DHT22;31871;49.418;8.752;2022-10-01T12:29:50;12.60;99.90
46137;DHT22;31871;49.418;8.752;2022-10-01T12:40:58;12.60;99.90
46137;DHT22;31871;49.418;8.752;2022-10-01T12:46:15;12.70;99.90
46137;DHT22;31871;49.418;8.752;2022-10-01T12:49:59;12.70;99.90
46137;DHT22;31871;49.418;8.752;2022-10-01T13:00:58;12.70;99.90
46137;DHT22;31871;49.418;8.752;2022-10-01T13:03:42;12.70;99.90
46137;DHT22;31871;49.418;8.752;2022-10-01T13:06:36;12.80;99.90
46137;DHT22;31871;49.418;8.752;2022-10-01T13:09:12;12.90;99.90
46137;DHT22;31871;49.418;8.752;2022-10-01T13:14:44;13.00;99.90
46137;DHT22;31871;49.418;8.752;2022-10-01T13:17:27;13.10;99.90
46137;DHT22;31871;49.418;8.752;2022-10-01T13:20:27;13.10;99.90
46137;DHT22;31871;49.418;8.752;2022-10-01T13:23:00;13.10;99.90
46137;DHT22;31871;49.418;8.752;2022-10-01T13:26:28;13.30;99.90
46137;DHT22;31871;49.418;8.752;2022-10-01T13:28:45;13.30;99.90
46137;DHT22;31871;49.418;8.752;2022-10-01T13:31:16;13.30;99.90
46137;DHT22;31871;49.418;8.752;2022-10-01T13:34:20;13.40;99.90
46137;DHT22;31871;49.418;8.752;2022-10-01T13:36:46;13.30;99.90
46137;DHT22;31871;49.418;8.752;2022-10-01T13:39:22;13.40;99.90
46137;DHT22;31871;49.418;8.752;2022-10-01T13:41:51;13.40;99.90
46137;DHT22;31871;49.418;8.752;2022-10-01T13:44:23;13.40;99.90
46137;DHT22;31871;49.418;8.752;2022-10-01T13:47:05;13.40;99.90
46137;DHT22;31871;49.418;8.752;2022-10-01T13:49:32;13.50;99.90
46137;DHT22;31871;49.418;8.752;2022-10-01T13:51:59;13.60;99.90
46137;DHT22;31871;49.418;8.752;2022-10-01T13:54:36;13.50;99.90
46137;DHT22;31871;49.418;8.752;2022-10-01T13:57:28;13.40;99.90
46137;DHT22;31871;49.418;8.752;2022-10-01T14:02:36;13.40;99.90
46137;DHT22;31871;49.418;8.752;2022-10-01T14:05:23;13.30;99.90
46137;DHT22;31871;49.418;8.752;2022-10-01T14:07:58;13.40;99.90
46137;DHT22;31871;49.418;8.752;2022-10-01T14:10:37;13.40;99.90
46137;DHT22;31871;49.418;8.752;2022-10-01T14:13:25;13.40;99.90
46137;DHT22;31871;49.418;8.752;2022-10-01T14:16:10;13.40;99.90
46137;DHT22;31871;49.418;8.752;2022-10-01T14:18:39;13.40;99.90
46137;DHT22;31871;49.418;8.752;2022-10-01T14:26:38;13.40;99.90
46137;DHT22;31871;49.418;8.752;2022-10-01T14:34:55;13.50;99.90
46137;DHT22;31871;49.418;8.752;2022-10-01T14:37:25;13.50;99.90
46137;DHT22;31871;49.418;8.752;2022-10-01T14:40:08;13.60;99.90
46137;DHT22;31871;49.418;8.752;2022-10-01T14:42:37;13.60;99.90
46137;DHT22;31871;49.418;8.752;2022-10-01T14:45:16;13.70;99.90
46137;DHT22;31871;49.418;8.752;2022-10-01T14:47:42;13.70;99.90
46137;DHT22;31871;49.418;8.752;2022-10-01T14:50:19;13.70;99.90
46137;DHT22;31871;49.418;8.752;2022-10-01T14:52:47;13.70;99.90
46137;DHT22;31871;49.418;8.752;2022-10-01T14:55:16;13.70;99.90
46137;DHT22;31871;49.418;8.752;2022-10-01T14:57:52;13.70;99.90
46137;DHT22;31871;49.418;8.752;2022-10-01T15:00:27;13.70;99.90
46137;DHT22;31871;49.418;8.752;2022-10-01T15:03:08;13.60;99.90
46137;DHT22;31871;49.418;8.752;2022-10-01T15:05:35;13.60;99.90
46137;DHT22;31871;49.418;8.752;2022-10-01T15:13:18;13.60;99.90
46137;DHT22;31871;49.418;8.752;2022-10-01T15:15:45;13.60;99.90
46137;DHT22;31871;49.418;8.752;2022-10-01T15:18:13;13.70;99.90
46137;DHT22;31871;49.418;8.752;2022-10-01T15:21:00;13.70;99.90
46137;DHT22;31871;49.418;8.752;2022-10-01T15:23:32;13.60;99.90
46137;DHT22;31871;49.418;8.752;2022-10-01T15:26:00;13.60;99.90
46137;DHT22;31871;49.418;8.752;2022-10-01T15:28:31;13.70;99.90
46137;DHT22;31871;49.418;8.752;2022-10-01T15:30:59;13.60;99.90
46137;DHT22;31871;49.418;8.752;2022-10-01T15:33:34;13.60;99.90
46137;DHT22;31871;49.418;8.752;2022-10-01T15:36:03;13.60;99.90
46137;DHT22;31871;49.418;8.752;2022-10-01T15:38:30;13.70;99.90
46137;DHT22;31871;49.418;8.752;2022-10-01T15:40:58;13.70;99.90
46137;DHT22;31871;49.418;8.752;2022-10-01T15:43:32;13.90;99.90
46137;DHT22;31871;49.418;8.752;2022-10-01T15:48:35;14.00;99.90
46137;DHT22;31871;49.418;8.752;2022-10-01T15:51:22;13.90;99.90
46137;DHT22;31871;49.418;8.752;2022-10-01T15:53:50;13.80;99.90
46137;DHT22;31871;49.418;8.752;2022-10-01T15:56:18;13.80;99.90
46137;DHT22;31871;49.418;8.752;2022-10-01T15:58:52;13.80;99.90
46137;DHT22;31871;49.418;8.752;2022-10-01T16:01:25;14.00;99.90
46137;DHT22;31871;49.418;8.752;2022-10-01T16:04:06;14.00;99.90
46137;DHT22;31871;49.418;8.752;2022-10-01T16:06:36;13.90;99.90
46137;DHT22;31871;49.418;8.752;2022-10-01T16:09:16;13.90;99.90
46137;DHT22;31871;49.418;8.752;2022-10-01T16:11:53;13.80;99.90
46137;DHT22;31871;49.418;8.752;2022-10-01T16:14:41;13.80;99.90
46137;DHT22;31871;49.418;8.752;2022-10-01T16:17:22;13.80;99.90
46137;DHT22;31871;49.418;8.752;2022-10-01T16:19:53;13.80;99.90
46137;DHT22;31871;49.418;8.752;2022-10-01T16:24:55;13.70;99.90
46137;DHT22;31871;49.418;8.752;2022-10-01T16:27:25;13.70;99.90
46137;DHT22;31871;49.418;8.752;2022-10-01T16:30:02;13.70;99.90
46137;DHT22;31871;49.418;8.752;2022-10-01T16:32:34;13.70;99.90
46137;DHT22;31871;49.418;8.752;2022-10-01T16:35:23;13.70;99.90
46137;DHT22;31871;49.418;8.752;2022-10-01T16:37:52;13.60;99.90
46137;DHT22;31871;49.418;8.752;2022-10-01T16:40:21;13.60;99.90
46137;DHT22;31871;49.418;8.752;2022-10-01T16:42:48;13.50;99.90
46137;DHT22;31871;49.418;8.752;2022-10-01T16:47:42;13.50;99.90
46137;DHT22;31871;49.418;8.752;2022-10-01T16:50:11;13.50;99.90
46137;DHT22;31871;49.418;8.752;2022-10-01T16:52:38;13.50;99.90
46137;DHT22;31871;49.418;8.752;2022-10-01T16:55:30;13.60;99.90
46137;DHT22;31871;49.418;8.752;2022-10-01T16:58:01;13.70;99.90
46137;DHT22;31871;49.418;8.752;2022-10-01T17:00:27;13.60;99.90
46137;DHT22;31871;49.418;8.752;2022-10-01T17:02:54;13.60;99.90
46137;DHT22;31871;49.418;8.752;2022-10-01T17:05:21;13.60;99.90
46137;DHT22;31871;49.418;8.752;2022-10-01T17:07:47;13.60;99.90
46137;DHT22;31871;49.418;8.752;2022-10-01T17:10:14;13.50;99.90
46137;DHT22;31871;49.418;8.752;2022-10-01T17:12:41;13.50;99.90
46137;DHT22;31871;49.418;8.752;2022-10-01T17:15:11;13.50;99.90
46137;DHT22;31871;49.418;8.752;2022-10-01T17:17:37;13.50;99.90
46137;DHT22;31871;49.418;8.752;2022-10-01T17:20:04;13.50;99.90
46137;DHT22;31871;49.418;8.752;2022-10-01T17:22:29;13.50;99.90
46137;DHT22;31871;49.418;8.752;2022-10-01T17:24:55;13.40;99.90
46137;DHT22;31871;49.418;8.752;2022-10-01T17:27:21;13.40;99.90
46137;DHT22;31871;49.418;8.752;2022-10-01T17:29:47;13.40;99.90
46137;DHT22;31871;49.418;8.752;2022-10-01T17:32:12;13.40;99.90
46137;DHT22;31871;49.418;8.752;2022-10-01T17:34:41;13.30;99.90
46137;DHT22;31871;49.418;8.752;2022-10-01T17:37:07;13.30;99.90
46137;DHT22;31871;49.418;8.752;2022-10-01T17:39:32;13.30;99.90
46137;DHT22;31871;49.418;8.752;2022-10-01T17:41:59;13.30;99.90
46137;DHT22;31871;49.418;8.752;2022-10-01T17:44:24;13.40;99.90
46137;DHT22;31871;49.418;8.752;2022-10-01T17:46:51;13.40;99.90
46137;DHT22;31871;49.418;8.752;2022-10-01T17:49:16;13.40;99.90
46137;DHT22;31871;49.418;8.752;2022-10-01T17:51:42;13.50;99.90
46137;DHT22;31871;49.418;8.752;2022-10-01T17:54:08;13.50;99.90
46137;DHT22;31871;49.418;8.752;2022-10-01T17:56:34;13.50;99.90
46137;DHT22;31871;49.418;8.752;2022-10-01T17:58:59;13.50;99.90
46137;DHT22;31871;49.418;8.752;2022-10-01T18:01:25;13.60;99.90
46137;DHT22;31871;49.418;8.752;2022-10-01T18:03:54;13.60;99.90